首页
METAR-TAF:

METAR-TAF

机场 :

諾福克國際機場

諾福克, 弗吉尼亚州, 美国

纬度: 36-54-13N, 经度: 076-11-31W, 海拔: 8米

当前天气观测

该预报发布于27分钟前的02:51 UTC
风速10节,风向北转西北,有时为18节阵风
温度 17°C
湿度 72%
气压 1013 hPa
能見度: 16.1公里
少量云层高于2900英尺
阴天层高于5000英尺

METAR: KORF 170251Z 33010G18KT 10SM FEW029 OVC050 17/12 A2990 RMK AO2 PK WND 35028/0206 SLP125 60006 T01720122 53022

时间: 23:18 (03:18 UTC)

预报

该预报发布于3小时和21分钟前的23:57 UTC
预报有效从17日的 00点(UTC)到 17日的 24点(UTC)
风速12节,风向北转西北,有时为20节阵风
能見度: 6.4公里
散云层高于1200英尺
多云层高于4000英尺
雨, 轻雾
短暂存在
从 17日的 01点(UTC)到 17日的 02点(UTC)
能見度: 10公里
小雨
从 17日的 0200点(UTC)
风速17节,风向北转西北,有时为27节阵风
能見度: 10公里
散云层高于2000英尺
阴天层高于4000英尺
附近有阵雨
从 17日的 0400点(UTC)
风速14节,风向北转西北,有时为25节阵风
能見度: 10公里
多云层高于6000英尺
从 17日的 0700点(UTC)
风速12节,风向北转西北
能見度: 10公里
天空无云
从 17日的 1500点(UTC)
风速11节,风向西北,有时为18节阵风
能見度: 10公里
天空无云

TAF: KORF 162357Z 1700/1724 34012G20KT 4SM RA BR SCT012 BKN040 WS010/35035KT TEMPO 1701/1702 P6SM -RA FM170200 34017G27KT P6SM VCSH SCT020 OVC040 WS010/35035KT FM170400 33014G25KT P6SM BKN060 FM170700 33012KT P6SM SKC FM171500 32011G18KT P6SM SKC

超过4000个机场的气象观测和天气预报(METAR&TAF报告)。

可查询的气象台以黄色和红色小点在地图上表示。

将鼠标移到小点上方,可查看气象台名称。

然后点击查看天气观测和预报。

如需切换地图:点击带黑十字的绿色按钮放大地图;点击带横线的绿色按钮缩小地图;或者点击绿色箭头查看邻近地区的地图。


METAR-TAF: